Time;durP1;ratioP1;P1;durP2;ratioP2;P2;SDS_P1;SDS_P2;PMS_P1;PMS_P2;Temp;Humidity;BMP_temperature;BMP_pressure;BME280_temperature;BME280_humidity;BME280_pressure;Samples;Min_cycle;Max_cycle;Signal;HPM_P1;HPM_P2
2022/08/16 00:02:18;;;;;;;2.85;2.30;;;27.00;49.60;;;;;;4981387;28;20041;-85
2022/08/16 00:04:44;;;;;;;3.22;2.20;;;27.00;49.50;;;;;;4996731;28;20033;-83
2022/08/16 00:07:11;;;;;;;2.97;2.50;;;27.00;49.60;;;;;;5013846;28;20030;-84
2022/08/16 00:09:37;;;;;;;2.65;2.30;;;27.00;49.60;;;;;;4980955;28;20077;-84
2022/08/16 00:12:04;;;;;;;3.50;2.47;;;26.90;49.70;;;;;;4996615;28;20041;-83
2022/08/16 00:14:32;;;;;;;2.90;2.20;;;26.90;49.70;;;;;;4980562;28;20041;-84
2022/08/16 00:16:59;;;;;;;3.33;2.20;;;26.90;50.40;;;;;;4996513;28;20036;-86
2022/08/16 00:19:30;;;;;;;3.38;2.60;;;26.90;49.80;;;;;;4980502;28;20036;-84
2022/08/16 00:21:56;;;;;;;3.15;2.08;;;26.80;49.80;;;;;;4996623;28;20046;-84
2022/08/16 00:24:25;;;;;;;2.80;2.28;;;26.80;49.80;;;;;;4996688;28;20045;-83
2022/08/16 00:26:51;;;;;;;2.95;2.10;;;26.80;49.80;;;;;;4980802;28;20030;-85
2022/08/16 00:29:17;;;;;;;2.25;2.05;;;26.80;49.70;;;;;;4980543;28;20092;-83
2022/08/16 00:31:49;;;;;;;2.30;2.10;;;26.80;49.70;;;;;;4997201;28;20421;-83
2022/08/16 00:34:18;;;;;;;2.95;2.20;;;26.80;49.80;;;;;;4981003;28;20462;-84
2022/08/16 00:36:45;;;;;;;3.00;2.35;;;26.70;49.70;;;;;;4997021;28;20033;-83
2022/08/16 00:39:16;;;;;;;3.20;2.28;;;26.70;49.80;;;;;;4996802;28;20144;-83
2022/08/16 00:41:45;;;;;;;3.78;2.30;;;26.70;49.90;;;;;;4996928;28;20103;-83
2022/08/16 00:44:13;;;;;;;4.25;2.60;;;26.70;50.00;;;;;;4996005;28;20029;-84
2022/08/16 00:47:15;;;;;;;3.38;2.40;;;26.60;49.90;;;;;;4980240;28;20042;-84
2022/08/16 00:49:42;;;;;;;3.17;2.28;;;26.60;50.00;;;;;;4970557;28;20052;-84
2022/08/16 00:52:08;;;;;;;3.30;2.40;;;26.60;50.00;;;;;;4996941;28;20164;-84
2022/08/16 00:54:35;;;;;;;3.20;2.22;;;26.60;50.00;;;;;;4996517;28;20164;-84
2022/08/16 00:57:01;;;;;;;3.88;2.75;;;26.50;50.00;;;;;;4996137;28;20029;-85
2022/08/16 00:59:34;;;;;;;3.88;2.67;;;26.50;50.10;;;;;;4980681;28;20030;-84
2022/08/16 01:02:08;;;;;;;3.20;2.40;;;26.50;50.10;;;;;;4980483;28;20124;-85
2022/08/16 01:04:34;;;;;;;2.67;2.38;;;26.50;50.10;;;;;;4980202;28;20037;-84
2022/08/16 01:07:04;;;;;;;2.60;2.30;;;26.40;50.10;;;;;;4979982;28;20096;-84
2022/08/16 01:09:33;;;;;;;2.80;2.40;;;26.40;50.20;;;;;;5013553;28;20026;-84
2022/08/16 01:11:59;;;;;;;3.30;2.42;;;26.40;50.30;;;;;;4979871;28;20060;-84
2022/08/16 01:14:39;;;;;;;3.03;2.30;;;26.40;50.30;;;;;;4980591;28;20030;-84
2022/08/16 01:17:11;;;;;;;3.60;2.42;;;26.30;50.30;;;;;;4980196;28;20533;-85
2022/08/16 01:19:42;;;;;;;3.03;2.53;;;26.30;50.30;;;;;;4980521;28;20037;-84
2022/08/16 01:22:21;;;;;;;4.10;2.42;;;26.30;50.30;;;;;;4995464;28;20465;-84
2022/08/16 01:24:55;;;;;;;3.17;2.58;;;26.30;50.30;;;;;;4996645;28;20042;-84
2022/08/16 01:27:36;;;;;;;2.72;2.20;;;26.30;50.30;;;;;;4996168;28;20061;-84
2022/08/16 01:30:11;;;;;;;3.80;2.67;;;26.20;50.40;;;;;;5005500;28;20026;-83
2022/08/16 01:32:41;;;;;;;2.95;2.40;;;26.20;50.50;;;;;;4999943;28;20030;-85
2022/08/16 01:35:22;;;;;;;3.53;2.78;;;26.20;50.40;;;;;;5012330;28;20038;-84
2022/08/16 01:37:55;;;;;;;3.42;2.50;;;26.10;50.50;;;;;;5017676;28;20057;-83
2022/08/16 01:40:28;;;;;;;3.80;2.70;;;26.10;50.30;;;;;;5000153;28;20034;-83
2022/08/16 01:42:55;;;;;;;3.08;2.60;;;26.10;50.30;;;;;;4983282;28;20041;-83
2022/08/16 01:45:22;;;;;;;3.40;2.55;;;26.10;50.50;;;;;;4983220;28;20501;-84
2022/08/16 01:47:50;;;;;;;3.38;2.72;;;26.00;50.40;;;;;;4983228;28;20479;-84
2022/08/16 01:50:18;;;;;;;3.75;2.80;;;26.00;50.40;;;;;;4999921;28;20034;-84
2022/08/16 01:52:48;;;;;;;3.45;2.50;;;26.00;50.40;;;;;;4999973;28;20033;-84
2022/08/16 01:55:30;;;;;;;3.28;2.50;;;26.00;50.40;;;;;;4986073;28;20046;-84
2022/08/16 01:58:00;;;;;;;3.72;2.65;;;26.00;50.40;;;;;;4999804;28;20135;-84
2022/08/16 02:00:26;;;;;;;3.40;2.83;;;25.90;50.30;;;;;;4999786;28;20022;-84
2022/08/16 02:02:52;;;;;;;2.63;2.03;;;25.90;50.30;;;;;;4999181;28;20041;-84
2022/08/16 02:05:19;;;;;;;3.40;2.70;;;25.90;50.40;;;;;;4967272;28;20033;-82
2022/08/16 02:07:45;;;;;;;3.13;2.80;;;25.90;50.30;;;;;;4982857;28;20513;-83
2022/08/16 02:10:15;;;;;;;4.07;2.80;;;25.80;50.30;;;;;;4999613;28;20030;-83
2022/08/16 02:12:43;;;;;;;4.28;2.97;;;25.80;50.30;;;;;;4998869;28;20364;-84
2022/08/16 02:15:12;;;;;;;5.10;2.72;;;25.80;50.40;;;;;;4998927;28;20061;-84
2022/08/16 02:17:38;;;;;;;4.10;2.85;;;25.80;50.40;;;;;;4998799;28;20026;-84
2022/08/16 02:20:07;;;;;;;3.65;2.67;;;25.70;50.40;;;;;;4982612;28;20112;-84
2022/08/16 02:22:34;;;;;;;3.55;2.60;;;25.70;50.50;;;;;;4982815;28;20030;-84
2022/08/16 02:25:00;;;;;;;3.58;2.78;;;25.70;50.50;;;;;;5015982;28;20053;-84
2022/08/16 02:27:26;;;;;;;4.25;3.05;;;25.70;50.50;;;;;;4998489;28;20022;-84
2022/08/16 02:29:52;;;;;;;4.35;3.08;;;25.60;50.50;;;;;;4966620;28;20049;-84
2022/08/16 02:32:18;;;;;;;4.22;2.85;;;25.60;50.50;;;;;;4982279;28;20124;-85
2022/08/16 02:34:44;;;;;;;3.58;2.75;;;25.60;50.50;;;;;;4982230;28;20037;-82
2022/08/16 02:37:10;;;;;;;4.60;3.13;;;25.60;50.60;;;;;;4998349;28;20037;-84
2022/08/16 02:39:37;;;;;;;4.28;2.92;;;25.60;50.70;;;;;;4982478;28;20386;-84
2022/08/16 02:42:04;;;;;;;4.82;3.28;;;25.50;50.60;;;;;;4983188;28;20111;-84
2022/08/16 02:44:30;;;;;;;3.45;2.88;;;25.50;50.60;;;;;;4997792;28;20038;-83
2022/08/16 02:46:56;;;;;;;4.53;3.08;;;25.50;50.70;;;;;;4966871;28;20133;-82
2022/08/16 02:49:24;;;;;;;4.28;3.08;;;25.50;50.70;;;;;;4998112;28;20046;-84
2022/08/16 02:51:49;;;;;;;3.90;2.97;;;25.40;50.70;;;;;;4982229;28;20037;-82
2022/08/16 02:54:15;;;;;;;4.20;2.75;;;25.40;50.70;;;;;;4998001;28;20557;-83
2022/08/16 02:56:43;;;;;;;3.28;2.70;;;25.40;50.70;;;;;;4982146;28;20034;-84
2022/08/16 02:59:10;;;;;;;4.20;3.30;;;25.40;50.80;;;;;;4982086;28;20129;-84
2022/08/16 03:01:37;;;;;;;4.22;3.10;;;25.40;51.50;;;;;;4998225;28;20040;-83
2022/08/16 03:04:13;;;;;;;3.90;2.80;;;25.30;50.70;;;;;;4983396;28;20124;-84
2022/08/16 03:06:40;;;;;;;3.42;2.75;;;25.30;50.80;;;;;;4965760;28;20061;-84
2022/08/16 03:09:12;;;;;;;3.83;3.10;;;25.30;50.90;;;;;;4982944;28;20026;-84
2022/08/16 03:11:43;;;;;;;3.40;2.65;;;25.20;50.80;;;;;;4997823;28;20037;-83
2022/08/16 03:14:10;;;;;;;4.25;3.17;;;25.20;50.90;;;;;;4981691;28;20034;-84
2022/08/16 03:16:37;;;;;;;4.15;3.13;;;25.20;50.90;;;;;;4982390;28;20030;-84
2022/08/16 03:19:03;;;;;;;5.07;3.03;;;25.20;50.90;;;;;;4981527;28;20418;-85
2022/08/16 03:21:31;;;;;;;3.30;2.88;;;25.10;50.90;;;;;;4998527;28;20499;-85
2022/08/16 03:23:58;;;;;;;4.20;3.00;;;25.10;51.00;;;;;;4999444;28;20129;-85
2022/08/16 03:26:24;;;;;;;4.65;3.30;;;25.10;51.00;;;;;;5015591;28;20040;-83
2022/08/16 03:28:51;;;;;;;5.05;3.17;;;25.10;51.00;;;;;;5002835;28;20033;-83
2022/08/16 03:31:18;;;;;;;4.25;3.15;;;25.10;51.00;;;;;;4982180;28;20030;-84
2022/08/16 03:33:44;;;;;;;3.78;3.00;;;25.00;51.00;;;;;;4997607;28;20034;-85
2022/08/16 03:36:09;;;;;;;4.40;2.90;;;25.00;51.00;;;;;;4997403;28;20041;-84
2022/08/16 03:38:39;;;;;;;3.80;3.05;;;25.00;51.10;;;;;;4981380;28;20077;-83
2022/08/16 03:41:11;;;;;;;3.78;3.08;;;25.00;51.10;;;;;;4966379;28;20065;-86
2022/08/16 03:43:37;;;;;;;4.40;3.00;;;24.90;51.10;;;;;;4981320;28;20049;-84
2022/08/16 03:46:03;;;;;;;3.30;2.65;;;24.90;51.10;;;;;;4980965;28;20044;-84
2022/08/16 03:48:38;;;;;;;4.38;3.22;;;24.90;51.20;;;;;;4993680;28;20399;-84
2022/08/16 03:51:11;;;;;;;3.45;2.78;;;24.80;51.20;;;;;;4994080;28;20051;-85
2022/08/16 03:53:44;;;;;;;3.20;2.70;;;24.80;51.20;;;;;;4993911;28;20049;-85
2022/08/16 03:56:11;;;;;;;3.88;3.25;;;24.80;51.20;;;;;;4961665;28;20374;-85
2022/08/16 03:58:37;;;;;;;3.78;3.05;;;24.80;51.30;;;;;;4961309;28;20109;-85
2022/08/16 04:01:05;;;;;;;4.15;3.15;;;24.80;51.30;;;;;;4961939;28;20030;-85
2022/08/16 04:03:32;;;;;;;4.53;2.90;;;24.80;51.40;;;;;;4978388;28;20026;-84
2022/08/16 04:05:59;;;;;;;3.75;2.80;;;24.70;51.40;;;;;;4993777;28;20030;-84
2022/08/16 04:08:25;;;;;;;4.07;3.10;;;24.70;51.40;;;;;;4977706;28;20488;-84
2022/08/16 04:10:55;;;;;;;4.10;2.90;;;24.70;51.50;;;;;;4993230;28;20463;-81
2022/08/16 04:13:22;;;;;;;3.80;3.22;;;24.60;51.40;;;;;;4976685;28;20058;-81
2022/08/16 04:15:49;;;;;;;3.58;2.88;;;24.60;51.50;;;;;;4976671;28;20058;-81
2022/08/16 04:18:22;;;;;;;4.10;3.05;;;24.60;51.50;;;;;;4963359;28;20035;-79
2022/08/16 04:20:50;;;;;;;4.00;3.25;;;24.50;51.50;;;;;;4994255;28;20030;-79
2022/08/16 04:23:18;;;;;;;4.75;3.65;;;24.50;51.60;;;;;;4961786;28;20026;-80
2022/08/16 04:25:45;;;;;;;4.88;3.33;;;24.50;51.60;;;;;;4976549;28;20038;-79
2022/08/16 04:28:12;;;;;;;4.18;3.30;;;24.50;51.70;;;;;;4992622;28;20033;-80
2022/08/16 04:30:38;;;;;;;4.35;3.15;;;24.50;51.80;;;;;;4976200;28;20034;-79
2022/08/16 04:33:05;;;;;;;5.63;3.45;;;24.40;51.80;;;;;;4960508;28;20370;-80
2022/08/16 04:35:34;;;;;;;4.22;3.42;;;24.40;51.80;;;;;;4976622;28;20383;-79
2022/08/16 04:38:00;;;;;;;4.50;3.38;;;24.40;51.80;;;;;;4960955;28;20037;-79
2022/08/16 04:40:31;;;;;;;4.13;3.30;;;24.40;51.80;;;;;;4961355;28;20049;-80
2022/08/16 04:43:00;;;;;;;4.93;3.55;;;24.30;51.80;;;;;;4992918;28;20077;-79
2022/08/16 04:45:27;;;;;;;4.30;3.40;;;24.40;52.00;;;;;;4976803;28;20435;-80
2022/08/16 04:47:53;;;;;;;4.00;3.25;;;24.30;51.90;;;;;;4976578;28;20112;-82
2022/08/16 04:50:23;;;;;;;5.25;3.65;;;24.30;52.00;;;;;;4993001;28;20038;-83
2022/08/16 04:52:57;;;;;;;4.93;3.70;;;24.30;52.10;;;;;;4994870;28;20546;-85
2022/08/16 04:55:27;;;;;;;4.65;3.55;;;24.20;52.00;;;;;;4994143;28;20435;-85
2022/08/16 04:57:56;;;;;;;4.70;3.40;;;24.20;52.10;;;;;;4964132;28;20038;-82
2022/08/16 05:00:34;;;;;;;4.18;3.50;;;24.20;52.10;;;;;;4993424;28;20026;-82
2022/08/16 05:03:20;;;;;;;4.45;3.53;;;24.20;52.20;;;;;;4964005;28;20030;-84
2022/08/16 05:05:48;;;;;;;4.82;3.75;;;24.20;52.20;;;;;;4977327;28;20058;-84
2022/08/16 05:08:19;;;;;;;6.72;4.00;;;24.20;52.30;;;;;;4964264;28;20056;-84
2022/08/16 05:10:50;;;;;;;4.15;3.45;;;24.10;52.20;;;;;;4981921;28;20049;-83
2022/08/16 05:13:17;;;;;;;4.30;3.30;;;24.10;52.30;;;;;;4982752;28;20031;-81
2022/08/16 05:15:45;;;;;;;4.80;3.92;;;24.10;52.40;;;;;;5014752;28;20037;-82
2022/08/16 05:18:13;;;;;;;5.05;3.42;;;24.00;52.30;;;;;;4973447;28;20478;-84
2022/08/16 05:20:45;;;;;;;4.83;3.90;;;24.10;52.40;;;;;;4983941;28;20034;-84
2022/08/16 05:23:12;;;;;;;4.55;3.60;;;24.00;52.40;;;;;;4981873;28;20336;-84
2022/08/16 05:25:39;;;;;;;4.28;3.28;;;24.00;52.40;;;;;;4980348;28;20030;-84
2022/08/16 05:28:04;;;;;;;4.82;3.75;;;24.00;52.50;;;;;;4964803;28;20060;-85
2022/08/16 05:30:30;;;;;;;4.85;3.65;;;24.00;52.50;;;;;;4980651;28;20467;-85
2022/08/16 05:32:56;;;;;;;4.40;3.58;;;24.00;52.60;;;;;;4981061;28;20129;-84
2022/08/16 05:35:22;;;;;;;5.35;3.60;;;24.00;52.70;;;;;;4980387;28;20058;-84
2022/08/16 05:38:01;;;;;;;5.72;3.97;;;24.00;52.70;;;;;;4996142;28;20031;-84
2022/08/16 05:40:29;;;;;;;4.57;3.67;;;24.00;52.70;;;;;;4964605;28;20348;-84
2022/08/16 05:42:56;;;;;;;4.78;3.78;;;23.90;52.70;;;;;;4964772;28;20389;-84
2022/08/16 05:45:22;;;;;;;4.55;3.65;;;23.90;52.80;;;;;;4996189;28;20035;-85
2022/08/16 05:47:49;;;;;;;5.00;3.70;;;23.90;52.80;;;;;;4996232;28;20070;-83
2022/08/16 05:50:15;;;;;;;5.95;4.18;;;23.90;52.90;;;;;;4980825;28;20034;-84
2022/08/16 05:52:41;;;;;;;4.93;3.55;;;23.90;52.90;;;;;;4964532;28;20045;-83
2022/08/16 05:55:07;;;;;;;5.32;4.10;;;23.90;52.90;;;;;;4980228;28;20029;-84
2022/08/16 05:57:34;;;;;;;5.18;4.00;;;23.90;53.00;;;;;;4995818;28;20474;-83
2022/08/16 06:00:02;;;;;;;4.50;3.72;;;23.90;53.00;;;;;;4979931;28;20037;-83
2022/08/16 06:02:38;;;;;;;5.03;3.90;;;23.90;53.00;;;;;;4997019;28;20046;-84
2022/08/16 06:05:10;;;;;;;4.63;3.63;;;23.90;53.00;;;;;;4995996;28;20022;-84
2022/08/16 06:07:35;;;;;;;4.63;4.00;;;23.90;53.00;;;;;;4979691;28;20081;-84
2022/08/16 06:10:12;;;;;;;5.28;3.85;;;23.80;53.00;;;;;;4980794;28;20037;-84
2022/08/16 06:12:38;;;;;;;4.70;3.78;;;23.80;53.00;;;;;;4978889;28;20042;-84
2022/08/16 06:15:18;;;;;;;5.03;3.97;;;23.80;53.00;;;;;;4995762;28;20029;-84
2022/08/16 06:17:44;;;;;;;4.93;3.78;;;23.80;53.10;;;;;;4963786;28;20044;-84
2022/08/16 06:20:26;;;;;;;5.07;3.55;;;23.80;53.10;;;;;;4995399;28;20348;-83
2022/08/16 06:22:56;;;;;;;4.10;3.50;;;23.80;53.10;;;;;;4996623;28;20041;-85
2022/08/16 06:25:27;;;;;;;4.25;3.45;;;23.80;53.10;;;;;;4979210;28;20313;-84
2022/08/16 06:27:55;;;;;;;5.30;3.75;;;23.80;53.10;;;;;;4979613;28;20034;-83
2022/08/16 06:30:21;;;;;;;5.00;3.95;;;23.80;53.10;;;;;;4979492;28;20038;-83
2022/08/16 06:32:48;;;;;;;5.00;4.03;;;23.80;53.10;;;;;;4980180;28;20502;-84
2022/08/16 06:35:14;;;;;;;4.65;3.90;;;23.80;53.10;;;;;;4980181;28;20058;-84
2022/08/16 06:37:42;;;;;;;4.70;3.65;;;23.80;53.70;;;;;;4982445;28;20035;-82
2022/08/16 06:40:10;;;;;;;5.22;3.70;;;23.90;53.20;;;;;;4964249;28;20121;-83
2022/08/16 06:42:40;;;;;;;4.63;3.80;;;23.80;53.10;;;;;;4964015;28;20038;-83
2022/08/16 06:45:29;;;;;;;4.70;3.70;;;23.80;53.10;;;;;;4982779;28;20033;-84
2022/08/16 06:48:01;;;;;;;4.72;3.75;;;23.90;53.10;;;;;;4995472;28;20109;-85
2022/08/16 06:50:27;;;;;;;5.10;3.83;;;23.90;53.10;;;;;;4963365;28;20034;-84
2022/08/16 06:52:52;;;;;;;4.82;3.42;;;23.80;53.00;;;;;;4979242;28;20030;-84
2022/08/16 06:55:18;;;;;;;5.43;3.80;;;23.90;53.10;;;;;;4963644;28;20050;-84
2022/08/16 06:57:50;;;;;;;4.57;3.63;;;23.80;53.10;;;;;;4979552;28;20031;-83
2022/08/16 07:00:17;;;;;;;5.50;3.95;;;23.90;53.10;;;;;;4995329;28;20027;-83
2022/08/16 07:02:56;;;;;;;;;;;23.90;53.00;;;;;;4981397;28;20022;-84
2022/08/16 07:05:21;;;;;;;4.13;3.10;;;23.90;52.90;;;;;;4974704;28;19940;-85
2022/08/16 07:08:10;;;;;;;4.05;3.13;;;23.90;52.90;;;;;;5003740;28;20034;-85
2022/08/16 07:10:36;;;;;;;4.38;3.58;;;23.90;53.00;;;;;;4989779;28;20045;-83
2022/08/16 07:13:02;;;;;;;5.32;3.42;;;23.90;53.00;;;;;;4979084;28;20056;-84
2022/08/16 07:15:30;;;;;;;3.97;3.33;;;23.90;53.00;;;;;;4978944;28;20507;-84
2022/08/16 07:17:56;;;;;;;4.55;3.53;;;23.90;53.00;;;;;;4978847;28;20066;-85
2022/08/16 07:20:24;;;;;;;3.58;2.97;;;23.90;53.00;;;;;;4978600;28;20034;-84
2022/08/16 07:22:51;;;;;;;3.90;3.30;;;23.90;53.00;;;;;;4978594;28;20066;-84
2022/08/16 07:25:21;;;;;;;4.07;3.22;;;24.00;53.00;;;;;;4979063;28;20130;-84
2022/08/16 07:27:48;;;;;;;4.50;3.25;;;24.00;53.00;;;;;;4994760;28;20037;-84
2022/08/16 07:30:18;;;;;;;4.00;3.20;;;24.00;53.00;;;;;;4994791;28;20113;-84
2022/08/16 07:32:44;;;;;;;4.20;3.08;;;24.00;53.00;;;;;;4993342;28;20504;-85
2022/08/16 07:35:11;;;;;;;4.32;3.30;;;24.00;52.90;;;;;;4978377;28;20121;-85
2022/08/16 07:37:37;;;;;;;4.32;3.53;;;24.00;52.90;;;;;;4995377;28;20061;-85
2022/08/16 07:40:15;;;;;;;4.13;3.20;;;24.00;52.90;;;;;;4980202;28;20077;-85
2022/08/16 07:42:43;;;;;;;3.95;3.50;;;24.00;52.80;;;;;;4978016;28;20174;-84
2022/08/16 07:45:10;;;;;;;3.95;3.10;;;24.00;52.80;;;;;;4994066;28;20079;-83
2022/08/16 07:47:37;;;;;;;3.90;3.35;;;24.10;52.90;;;;;;4967241;28;20111;-84
2022/08/16 07:50:04;;;;;;;5.22;3.40;;;24.10;52.90;;;;;;4997464;28;20037;-83
2022/08/16 07:52:30;;;;;;;3.58;2.85;;;24.10;52.90;;;;;;4981510;28;20038;-83
2022/08/16 07:54:57;;;;;;;4.45;3.47;;;24.10;52.90;;;;;;4996821;28;20064;-83
2022/08/16 07:57:23;;;;;;;4.45;3.05;;;24.10;52.80;;;;;;5014615;28;20466;-83
2022/08/16 07:59:49;;;;;;;4.00;3.28;;;24.10;52.80;;;;;;4981464;28;20139;-84
2022/08/16 08:02:15;;;;;;;3.85;3.08;;;24.20;52.80;;;;;;4981065;28;20033;-84
2022/08/16 08:04:43;;;;;;;3.83;3.20;;;24.20;52.80;;;;;;4997388;28;20042;-84
2022/08/16 08:07:09;;;;;;;3.75;3.10;;;24.20;52.80;;;;;;4965335;28;20450;-84
2022/08/16 08:09:35;;;;;;;4.40;3.45;;;24.20;52.80;;;;;;4997715;28;20033;-85
2022/08/16 08:12:01;;;;;;;4.03;3.28;;;24.30;52.80;;;;;;4997723;28;20075;-85
2022/08/16 08:14:26;;;;;;;4.40;3.60;;;24.30;52.80;;;;;;4980968;28;20030;-84
2022/08/16 08:16:52;;;;;;;4.45;3.70;;;24.30;52.70;;;;;;5001201;28;20045;-84
2022/08/16 08:19:25;;;;;;;3.90;3.20;;;24.40;52.80;;;;;;4987296;28;20030;-84
2022/08/16 08:21:53;;;;;;;3.97;3.17;;;24.40;52.70;;;;;;4981771;28;20026;-85
2022/08/16 08:24:23;;;;;;;4.22;3.60;;;24.40;52.60;;;;;;4981251;28;20112;-85
2022/08/16 08:26:49;;;;;;;3.53;3.05;;;24.50;52.60;;;;;;4996793;28;20030;-85
2022/08/16 08:29:16;;;;;;;4.15;2.95;;;24.60;52.50;;;;;;4980919;28;20044;-83
2022/08/16 08:31:42;;;;;;;4.53;3.15;;;24.60;52.50;;;;;;4980995;28;20527;-85
2022/08/16 08:34:09;;;;;;;4.00;2.85;;;24.60;52.40;;;;;;4964357;28;20030;-85
2022/08/16 08:36:35;;;;;;;3.92;3.20;;;24.70;52.40;;;;;;4980209;28;20034;-84
2022/08/16 08:39:20;;;;;;;3.92;3.00;;;24.70;52.30;;;;;;4983970;28;20153;-84
2022/08/16 08:41:46;;;;;;;4.07;3.15;;;24.80;52.20;;;;;;4996969;28;20030;-84
2022/08/16 08:44:14;;;;;;;3.63;3.03;;;24.80;52.10;;;;;;4980931;28;20120;-85
2022/08/16 08:46:40;;;;;;;4.10;3.30;;;24.90;52.10;;;;;;4996635;28;20073;-84
2022/08/16 08:49:08;;;;;;;3.88;3.22;;;25.00;52.10;;;;;;4980166;28;20042;-85
2022/08/16 08:51:40;;;;;;;3.25;2.70;;;25.10;52.00;;;;;;5010317;28;20029;-86
2022/08/16 08:54:09;;;;;;;3.20;2.58;;;25.10;51.90;;;;;;5003740;28;20127;-88
2022/08/16 08:56:40;;;;;;;3.83;3.05;;;25.20;51.90;;;;;;4990261;28;20025;-87
2022/08/16 08:59:12;;;;;;;3.97;2.83;;;25.20;51.80;;;;;;4981347;28;20038;-84
2022/08/16 09:01:39;;;;;;;3.90;3.20;;;25.30;51.70;;;;;;4980589;28;20038;-85
2022/08/16 09:04:07;;;;;;;3.83;2.95;;;25.40;51.70;;;;;;4996679;28;20033;-85
2022/08/16 09:06:34;;;;;;;4.22;3.13;;;25.50;51.80;;;;;;4980287;28;20036;-86
2022/08/16 09:09:02;;;;;;;3.47;2.88;;;25.60;52.40;;;;;;4979873;28;20117;-84
2022/08/16 09:11:28;;;;;;;3.90;2.90;;;25.60;51.70;;;;;;4980118;28;20053;-85
2022/08/16 09:13:54;;;;;;;3.28;2.63;;;25.70;51.70;;;;;;4980140;28;20038;-86
2022/08/16 09:16:20;;;;;;;3.15;2.80;;;25.80;51.80;;;;;;4996699;28;20497;-85
2022/08/16 09:18:46;;;;;;;3.63;2.78;;;25.90;51.70;;;;;;4980959;28;20030;-85
2022/08/16 09:21:13;;;;;;;3.25;2.58;;;26.00;51.80;;;;;;4980543;28;20076;-85
2022/08/16 09:23:40;;;;;;;3.33;2.63;;;26.10;51.80;;;;;;4996373;28;20084;-86
2022/08/16 09:26:09;;;;;;;3.33;2.80;;;26.10;51.70;;;;;;4980234;28;20018;-84
2022/08/16 09:28:36;;;;;;;3.25;2.53;;;26.20;51.70;;;;;;4979350;28;20033;-86
2022/08/16 09:31:09;;;;;;;3.13;2.70;;;26.30;51.80;;;;;;4981221;28;20060;-84
2022/08/16 09:33:35;;;;;;;3.25;2.55;;;26.40;51.70;;;;;;5013297;28;20053;-84
2022/08/16 09:36:01;;;;;;;3.13;2.60;;;26.50;51.70;;;;;;4979474;28;20037;-84
2022/08/16 09:38:27;;;;;;;5.85;2.80;;;26.60;51.70;;;;;;4979717;28;20034;-83
2022/08/16 09:40:56;;;;;;;3.63;2.70;;;26.70;51.80;;;;;;4980019;28;20066;-83
2022/08/16 09:43:23;;;;;;;3.20;2.40;;;26.80;51.80;;;;;;5014028;28;20045;-81
2022/08/16 09:45:49;;;;;;;4.18;2.78;;;26.90;51.80;;;;;;4980516;28;20391;-83
2022/08/16 09:48:15;;;;;;;2.60;2.40;;;26.90;51.80;;;;;;4995342;28;20053;-82
2022/08/16 09:50:42;;;;;;;2.85;2.55;;;27.10;51.80;;;;;;4981897;28;20512;-84
2022/08/16 09:53:12;;;;;;;3.58;2.80;;;27.10;51.70;;;;;;5016348;28;20038;-83
2022/08/16 09:55:38;;;;;;;3.40;2.60;;;27.20;51.70;;;;;;4981862;28;20038;-82
2022/08/16 09:58:04;;;;;;;3.05;2.53;;;27.30;51.70;;;;;;4983307;28;20064;-84
2022/08/16 10:00:30;;;;;;;2.97;2.47;;;27.40;51.70;;;;;;4967857;28;20121;-84
2022/08/16 10:02:57;;;;;;;3.83;2.80;;;27.50;51.70;;;;;;5016506;28;20029;-83
2022/08/16 10:05:23;;;;;;;3.05;2.47;;;27.60;51.60;;;;;;4982745;28;20057;-83
2022/08/16 10:07:52;;;;;;;2.92;2.40;;;27.70;51.60;;;;;;4982523;28;20113;-83
2022/08/16 10:10:19;;;;;;;3.55;2.35;;;27.80;51.60;;;;;;5016924;28;20033;-83
2022/08/16 10:15:31;;;;;;;2.38;2.17;;;27.90;51.60;;;;;;5019323;28;20125;-84
2022/08/16 10:17:57;;;;;;;3.22;2.42;;;28.10;51.60;;;;;;4999220;28;20030;-84
2022/08/16 10:20:24;;;;;;;2.70;2.30;;;28.10;51.60;;;;;;4982512;28;20030;-83
2022/08/16 10:22:51;;;;;;;2.25;2.00;;;28.20;51.60;;;;;;4998836;28;20149;-83
2022/08/16 10:25:17;;;;;;;3.05;2.40;;;28.30;51.60;;;;;;4982307;28;20041;-83
2022/08/16 10:27:46;;;;;;;2.60;2.40;;;28.40;51.60;;;;;;5016674;28;20026;-84
2022/08/16 10:30:12;;;;;;;2.50;2.30;;;28.50;51.70;;;;;;4998622;28;20041;-84
2022/08/16 10:32:38;;;;;;;2.55;2.35;;;28.60;51.60;;;;;;4998396;28;20017;-83
2022/08/16 10:35:05;;;;;;;3.05;2.50;;;28.70;51.60;;;;;;4982306;28;20034;-84
2022/08/16 10:37:30;;;;;;;2.85;2.38;;;28.80;51.60;;;;;;4966016;28;20037;-83
2022/08/16 10:39:56;;;;;;;2.55;2.35;;;28.90;51.60;;;;;;4997999;28;20034;-84
2022/08/16 10:42:22;;;;;;;2.47;2.28;;;29.00;51.50;;;;;;4982188;28;20026;-84
2022/08/16 10:44:48;;;;;;;2.38;2.10;;;29.00;51.40;;;;;;4982693;28;20030;-83
2022/08/16 10:47:14;;;;;;;2.35;2.15;;;29.10;51.40;;;;;;4981857;28;20045;-84
2022/08/16 10:49:40;;;;;;;2.53;2.25;;;29.20;51.40;;;;;;4966679;28;20096;-83
2022/08/16 10:52:06;;;;;;;3.78;2.60;;;29.30;51.50;;;;;;4981707;28;20039;-84
2022/08/16 10:54:32;;;;;;;3.00;2.58;;;29.40;51.50;;;;;;4998596;28;20034;-84
2022/08/16 10:57:00;;;;;;;2.65;2.38;;;29.50;51.50;;;;;;5015239;28;20021;-82
2022/08/16 10:59:31;;;;;;;3.10;2.50;;;29.60;51.60;;;;;;4998152;28;20044;-83
2022/08/16 11:01:58;;;;;;;2.72;2.47;;;29.60;51.50;;;;;;4982258;28;20030;-83
2022/08/16 11:04:25;;;;;;;2.90;2.55;;;29.70;51.60;;;;;;4998237;28;20144;-84
2022/08/16 11:06:51;;;;;;;2.90;2.40;;;29.80;51.70;;;;;;4981918;28;20025;-84
2022/08/16 11:09:17;;;;;;;3.08;2.58;;;29.90;51.80;;;;;;5015770;28;20105;-83
2022/08/16 11:11:43;;;;;;;2.80;2.42;;;29.90;51.80;;;;;;4982514;28;20061;-84
2022/08/16 11:14:09;;;;;;;2.90;2.45;;;30.00;51.90;;;;;;4984981;28;20025;-84
2022/08/16 11:16:35;;;;;;;2.88;2.50;;;30.10;52.10;;;;;;5009173;28;20049;-85
2022/08/16 11:19:02;;;;;;;2.85;2.55;;;30.10;52.10;;;;;;5017578;28;20005;-84
2022/08/16 11:21:29;;;;;;;2.55;2.25;;;30.20;52.30;;;;;;5000363;28;20060;-84
2022/08/16 11:23:55;;;;;;;3.40;2.38;;;30.20;52.50;;;;;;4997733;28;20551;-84
2022/08/16 11:26:21;;;;;;;3.08;2.50;;;30.30;52.60;;;;;;4981795;28;20041;-83
2022/08/16 11:28:49;;;;;;;3.25;2.58;;;30.30;52.70;;;;;;5015519;28;20033;-84
2022/08/16 11:31:18;;;;;;;3.40;2.58;;;30.30;52.80;;;;;;4981288;28;20088;-83
2022/08/16 11:33:43;;;;;;;3.15;2.60;;;30.40;53.00;;;;;;4997742;28;20037;-82
2022/08/16 11:36:09;;;;;;;2.45;2.22;;;30.40;53.00;;;;;;4997016;28;20022;-84
2022/08/16 11:38:35;;;;;;;2.65;2.20;;;30.50;53.20;;;;;;5015328;28;20114;-84
2022/08/16 11:41:02;;;;;;;2.90;2.40;;;30.50;53.20;;;;;;5014922;28;20466;-83
2022/08/16 11:43:34;;;;;;;4.75;2.60;;;30.60;53.40;;;;;;5014641;28;20359;-83
2022/08/16 11:46:04;;;;;;;3.05;2.60;;;30.60;53.50;;;;;;4981019;28;20041;-84
2022/08/16 11:48:32;;;;;;;3.05;2.42;;;30.60;53.50;;;;;;4996584;28;20419;-83
2022/08/16 11:50:59;;;;;;;2.60;2.33;;;30.60;53.50;;;;;;4981138;28;20037;-84
2022/08/16 11:53:27;;;;;;;2.47;2.28;;;30.70;53.70;;;;;;4996983;28;20041;-83
2022/08/16 11:55:54;;;;;;;3.42;2.55;;;30.70;53.70;;;;;;4948972;28;20084;-84
2022/08/16 11:58:21;;;;;;;2.67;2.33;;;30.70;53.70;;;;;;4997041;28;20100;-84
2022/08/16 12:00:47;;;;;;;2.03;1.83;;;30.80;53.70;;;;;;4996515;28;20105;-84
2022/08/16 12:03:14;;;;;;;2.97;2.63;;;30.80;53.70;;;;;;4980804;28;20029;-83
2022/08/16 12:05:41;;;;;;;2.50;2.30;;;30.80;53.70;;;;;;4981226;28;20022;-83
2022/08/16 12:08:07;;;;;;;2.70;2.17;;;30.90;53.80;;;;;;5014593;28;20029;-84
2022/08/16 12:10:35;;;;;;;3.13;2.50;;;30.90;53.80;;;;;;5014745;28;20026;-83
2022/08/16 12:13:00;;;;;;;2.80;2.38;;;30.90;53.70;;;;;;5033679;28;20017;-84
2022/08/16 12:15:27;;;;;;;3.03;2.63;;;30.90;53.60;;;;;;4984602;28;20045;-83
2022/08/16 12:17:54;;;;;;;2.75;2.15;;;31.00;53.60;;;;;;4996317;28;20034;-83
2022/08/16 12:20:24;;;;;;;2.83;2.40;;;31.00;53.50;;;;;;4980725;28;20026;-83
2022/08/16 12:22:52;;;;;;;3.33;2.35;;;31.00;53.40;;;;;;4980689;28;20129;-83
2022/08/16 12:25:19;;;;;;;2.80;2.35;;;31.00;53.30;;;;;;4996286;28;20030;-83
2022/08/16 12:27:47;;;;;;;2.85;2.55;;;31.00;53.30;;;;;;4996765;28;20088;-83
2022/08/16 12:30:17;;;;;;;2.50;2.30;;;31.00;53.10;;;;;;5005536;28;20022;-82
2022/08/16 12:32:43;;;;;;;2.88;2.47;;;31.00;53.10;;;;;;5014601;28;20034;-84
2022/08/16 12:35:17;;;;;;;2.50;2.30;;;31.10;53.00;;;;;;4983443;28;20041;-84
2022/08/16 12:37:44;;;;;;;2.55;2.35;;;31.10;53.00;;;;;;4996393;28;20026;-83
2022/08/16 12:40:14;;;;;;;3.13;2.60;;;31.10;52.90;;;;;;4979915;28;20061;-84
2022/08/16 12:42:40;;;;;;;3.00;2.30;;;31.10;52.80;;;;;;4980116;28;20040;-83
2022/08/16 12:45:10;;;;;;;2.63;2.30;;;31.10;52.70;;;;;;4979696;28;20045;-84
2022/08/16 12:50:20;;;;;;;2.88;2.53;;;31.20;52.60;;;;;;4950149;28;20490;-82
2022/08/16 12:52:47;;;;;;;3.30;2.60;;;31.20;52.50;;;;;;4994114;28;20050;-83
2022/08/16 12:55:13;;;;;;;3.13;2.53;;;31.20;52.40;;;;;;4960935;28;20105;-83
2022/08/16 12:57:39;;;;;;;2.60;2.40;;;31.20;52.30;;;;;;4960624;28;20064;-82
2022/08/16 13:00:11;;;;;;;3.40;2.45;;;31.20;52.30;;;;;;4960821;28;20066;-83